createdAt,value
2022-09-13T00:01:45.544Z,3.65
2022-09-13T00:04:12.436Z,3.72
2022-09-13T00:06:39.126Z,3.80
2022-09-13T00:09:05.822Z,4.03
2022-09-13T00:11:32.514Z,3.75
2022-09-13T00:13:59.404Z,3.47
2022-09-13T00:16:27.745Z,3.75
2022-09-13T00:18:54.638Z,3.53
2022-09-13T00:21:22.514Z,3.70
2022-09-13T00:23:51.158Z,3.63
2022-09-13T00:26:28.610Z,4.00
2022-09-13T00:28:57.816Z,3.83
2022-09-13T00:31:26.543Z,4.10
2022-09-13T00:33:53.556Z,4.20
2022-09-13T00:36:20.241Z,3.88
2022-09-13T00:38:46.983Z,4.70
2022-09-13T00:41:16.547Z,3.40
2022-09-13T00:43:46.175Z,3.75
2022-09-13T00:46:43.007Z,4.30
2022-09-13T00:49:14.583Z,3.90
2022-09-13T00:51:43.021Z,4.20
2022-09-13T00:54:09.989Z,4.00
2022-09-13T00:56:40.584Z,3.97
2022-09-13T00:59:12.659Z,4.15
2022-09-13T01:01:46.732Z,3.63
2022-09-13T01:04:13.741Z,3.58
2022-09-13T01:06:41.545Z,3.78
2022-09-13T01:09:08.567Z,4.05
2022-09-13T01:11:45.959Z,3.38
2022-09-13T01:14:12.896Z,3.72
2022-09-13T01:16:39.597Z,3.40
2022-09-13T01:19:06.361Z,3.60
2022-09-13T01:22:10.131Z,3.05
2022-09-13T01:24:36.792Z,4.00
2022-09-13T01:27:22.137Z,3.63
2022-09-13T01:29:58.734Z,3.60
2022-09-13T01:32:41.656Z,3.63
2022-09-13T01:35:24.145Z,3.80
2022-09-13T01:37:55.713Z,3.65
2022-09-13T01:41:04.509Z,3.70
2022-09-13T01:43:35.433Z,3.42
2022-09-13T01:46:11.226Z,3.50
2022-09-13T01:49:03.739Z,3.58
2022-09-13T01:51:34.535Z,3.30
2022-09-13T01:54:11.226Z,3.65
2022-09-13T01:56:42.958Z,3.40
2022-09-13T01:59:22.519Z,3.60
2022-09-13T02:01:58.965Z,3.58
2022-09-13T02:04:29.195Z,3.60
2022-09-13T02:07:09.519Z,3.40
2022-09-13T02:09:42.633Z,3.70
2022-09-13T02:12:14.636Z,3.58
2022-09-13T02:14:44.598Z,3.50
2022-09-13T02:17:24.440Z,3.50
2022-09-13T02:20:03.038Z,3.42
2022-09-13T02:22:34.105Z,3.80
2022-09-13T02:25:06.530Z,3.47
2022-09-13T02:27:34.527Z,3.58
2022-09-13T02:30:05.685Z,3.72
2022-09-13T02:32:37.453Z,3.80
2022-09-13T02:35:04.141Z,3.90
2022-09-13T02:37:33.206Z,3.60
2022-09-13T02:40:06.687Z,3.75
2022-09-13T02:42:42.067Z,3.60
2022-09-13T02:45:09.525Z,3.70
2022-09-13T02:47:50.283Z,3.88
2022-09-13T02:50:35.278Z,3.58
2022-09-13T02:53:11.135Z,3.38
2022-09-13T02:55:37.978Z,3.53
2022-09-13T02:58:14.625Z,3.88
2022-09-13T03:00:41.523Z,3.60
2022-09-13T03:03:11.022Z,3.58
2022-09-13T03:05:37.951Z,3.47
2022-09-13T03:08:06.117Z,3.55
2022-09-13T03:10:54.002Z,3.60
2022-09-13T03:13:23.705Z,3.72
2022-09-13T03:15:50.972Z,3.35
2022-09-13T03:18:33.115Z,3.60
2022-09-13T03:21:36.800Z,3.75
2022-09-13T03:24:23.689Z,3.72
2022-09-13T03:27:18.435Z,3.83
2022-09-13T03:30:07.937Z,3.80
2022-09-13T03:32:47.000Z,3.40
2022-09-13T03:35:23.033Z,3.58
2022-09-13T03:37:57.292Z,3.80
2022-09-13T03:40:36.309Z,3.80
2022-09-13T03:43:18.716Z,3.80
2022-09-13T03:45:49.596Z,3.80
2022-09-13T03:48:16.905Z,3.78
2022-09-13T03:50:45.885Z,3.55
2022-09-13T03:53:15.516Z,3.35
2022-09-13T03:55:43.471Z,3.58
2022-09-13T03:58:15.480Z,3.55
2022-09-13T04:00:42.525Z,3.72
2022-09-13T04:03:09.586Z,3.65
2022-09-13T04:05:36.395Z,3.75
2022-09-13T04:08:05.887Z,3.95
2022-09-13T04:10:33.390Z,4.00
2022-09-13T04:13:00.576Z,4.03
2022-09-13T04:15:28.167Z,3.63
2022-09-13T04:17:54.912Z,3.95
2022-09-13T04:20:22.241Z,4.10
2022-09-13T04:22:53.274Z,4.35
2022-09-13T04:25:20.712Z,4.05
2022-09-13T04:27:47.386Z,3.97
2022-09-13T04:30:14.528Z,4.03
2022-09-13T04:32:44.765Z,3.72
2022-09-13T04:35:12.032Z,4.10
2022-09-13T04:37:39.288Z,4.10
2022-09-13T04:40:09.526Z,4.10
2022-09-13T04:42:36.338Z,3.92
2022-09-13T04:45:03.437Z,4.70
2022-09-13T04:47:31.050Z,4.38
2022-09-13T04:49:57.788Z,4.72
2022-09-13T04:52:24.477Z,4.50
2022-09-13T04:54:51.200Z,4.78
2022-09-13T04:57:17.967Z,4.75
2022-09-13T04:59:44.765Z,4.47
2022-09-13T05:02:11.585Z,4.70
2022-09-13T05:04:38.649Z,4.32
2022-09-13T05:07:05.316Z,4.78
2022-09-13T05:09:32.214Z,4.65
2022-09-13T05:11:58.871Z,4.78
2022-09-13T05:14:25.692Z,4.43
2022-09-13T05:16:52.681Z,4.32
2022-09-13T05:19:19.353Z,4.60
2022-09-13T05:21:46.016Z,4.72
2022-09-13T05:24:12.702Z,4.53
2022-09-13T05:26:39.396Z,5.28
2022-09-13T05:29:06.079Z,4.15
2022-09-13T05:31:35.522Z,4.88
2022-09-13T05:34:06.727Z,4.43
2022-09-13T05:36:33.674Z,4.82
2022-09-13T05:39:28.473Z,4.80
2022-09-13T05:41:48.380Z,5.00
2022-09-13T05:44:15.064Z,5.78
2022-09-13T05:46:42.990Z,5.20
2022-09-13T05:49:09.671Z,6.10
2022-09-13T05:51:36.575Z,5.72
2022-09-13T05:54:03.561Z,5.70
2022-09-13T05:56:32.199Z,6.70
2022-09-13T05:58:59.273Z,6.22
2022-09-13T06:01:27.895Z,6.40
2022-09-13T06:03:56.517Z,6.80
2022-09-13T06:06:24.148Z,6.72
2022-09-13T06:08:57.706Z,6.60
2022-09-13T06:11:26.300Z,6.63
2022-09-13T06:13:53.389Z,6.75
2022-09-13T06:16:20.407Z,7.60
2022-09-13T06:18:47.089Z,6.68
2022-09-13T06:21:18.232Z,6.70
2022-09-13T06:23:54.632Z,7.55
2022-09-13T06:26:23.573Z,6.82
2022-09-13T06:28:51.765Z,7.40
2022-09-13T06:31:20.537Z,7.32
2022-09-13T06:33:47.505Z,7.32
2022-09-13T06:36:18.804Z,8.15
2022-09-13T06:38:49.117Z,7.30
2022-09-13T06:41:20.758Z,7.75
2022-09-13T06:43:48.172Z,7.40
2022-09-13T06:46:20.475Z,7.53
2022-09-13T06:48:50.965Z,7.38
2022-09-13T06:51:19.570Z,7.60
2022-09-13T06:53:48.541Z,8.40
2022-09-13T06:56:17.527Z,8.77
2022-09-13T06:58:46.168Z,7.75
2022-09-13T07:01:18.864Z,8.02
2022-09-13T07:03:48.186Z,7.82
2022-09-13T07:06:22.412Z,7.93
2022-09-13T07:08:51.590Z,8.35
2022-09-13T07:11:21.061Z,8.68
2022-09-13T07:13:52.377Z,7.47
2022-09-13T07:16:21.307Z,7.85
2022-09-13T07:18:52.619Z,7.40
2022-09-13T07:21:19.479Z,7.72
2022-09-13T07:23:46.233Z,8.40
2022-09-13T07:26:12.921Z,8.77
2022-09-13T07:28:41.278Z,8.57
2022-09-13T07:31:10.840Z,8.57
2022-09-13T07:33:39.029Z,8.50
2022-09-13T07:36:06.889Z,8.43
2022-09-13T07:38:34.986Z,9.18
2022-09-13T07:41:02.094Z,8.57
2022-09-13T07:43:29.384Z,7.90
2022-09-13T07:46:10.258Z,7.85
2022-09-13T07:48:39.522Z,7.95
2022-09-13T07:51:08.832Z,8.07
2022-09-13T07:53:36.844Z,8.35
2022-09-13T07:56:14.952Z,8.50
2022-09-13T07:58:43.416Z,8.63
2022-09-13T08:01:16.132Z,8.38
2022-09-13T08:03:43.228Z,8.18
2022-09-13T08:06:10.202Z,8.18
2022-09-13T08:08:37.579Z,8.02
2022-09-13T08:11:06.268Z,8.10
2022-09-13T08:13:33.286Z,7.82
2022-09-13T08:16:05.058Z,8.18
2022-09-13T08:18:32.125Z,8.52
2022-09-13T08:20:59.886Z,7.82
2022-09-13T08:23:27.489Z,8.10
2022-09-13T08:25:54.292Z,7.82
2022-09-13T08:28:26.784Z,7.68
2022-09-13T08:30:54.282Z,7.88
2022-09-13T08:33:21.196Z,7.85
2022-09-13T08:35:52.622Z,8.20
2022-09-13T08:38:19.965Z,8.13
2022-09-13T08:40:55.816Z,7.70
2022-09-13T08:43:46.294Z,8.95
2022-09-13T08:46:27.148Z,7.65
2022-09-13T08:48:56.807Z,7.22
2022-09-13T08:51:39.289Z,7.75
2022-09-13T08:54:06.420Z,8.25
2022-09-13T08:56:42.624Z,6.57
2022-09-13T08:59:27.139Z,6.95
2022-09-13T09:02:18.646Z,6.32
2022-09-13T09:05:01.737Z,7.03
2022-09-13T09:07:31.935Z,6.57
2022-09-13T09:09:59.915Z,7.35
2022-09-13T09:12:32.746Z,6.75
2022-09-13T09:15:04.534Z,6.45
2022-09-13T09:18:04.965Z,6.03
2022-09-13T09:20:41.027Z,5.38
2022-09-13T09:23:30.457Z,5.80
2022-09-13T09:26:09.512Z,5.68
2022-09-13T09:28:36.187Z,6.10
2022-09-13T09:31:08.903Z,5.82
2022-09-13T09:34:08.884Z,4.80
2022-09-13T09:37:13.903Z,5.57
2022-09-13T09:39:40.946Z,5.40
2022-09-13T09:42:28.695Z,5.20
2022-09-13T09:44:58.646Z,4.93
2022-09-13T09:47:33.118Z,4.22
2022-09-13T09:50:09.457Z,4.75
2022-09-13T09:53:14.950Z,5.22
2022-09-13T09:56:01.146Z,4.72
2022-09-13T09:58:39.793Z,4.63
2022-09-13T10:01:25.930Z,4.15
2022-09-13T10:04:13.075Z,4.75
2022-09-13T10:06:41.256Z,5.18
2022-09-13T10:09:16.932Z,4.60
2022-09-13T10:11:58.279Z,4.47
2022-09-13T10:14:38.295Z,4.40
2022-09-13T10:17:06.594Z,4.35
2022-09-13T10:19:33.653Z,4.28
2022-09-13T10:22:02.632Z,4.30
2022-09-13T10:24:30.642Z,4.50
2022-09-13T10:26:58.551Z,4.30
2022-09-13T10:29:27.815Z,4.60
2022-09-13T10:31:57.913Z,4.75
2022-09-13T10:34:29.177Z,4.45
2022-09-13T10:37:21.587Z,4.07
2022-09-13T10:40:05.529Z,4.10
2022-09-13T10:42:32.650Z,4.50
2022-09-13T10:45:02.132Z,4.60
2022-09-13T10:47:40.259Z,5.28
2022-09-13T10:50:22.568Z,4.60
2022-09-13T10:52:59.877Z,4.90
2022-09-13T10:55:31.423Z,5.45
2022-09-13T10:58:07.503Z,4.22
2022-09-13T11:01:06.106Z,5.40
2022-09-13T11:03:38.695Z,5.20
2022-09-13T11:06:31.078Z,5.47
2022-09-13T11:09:19.254Z,6.00
2022-09-13T11:12:21.977Z,5.68
2022-09-13T11:15:05.175Z,6.22
2022-09-13T11:17:50.219Z,6.70
2022-09-13T11:20:27.408Z,7.20
2022-09-13T11:22:57.024Z,7.72
2022-09-13T11:25:38.219Z,7.28
2022-09-13T11:28:10.530Z,7.88
2022-09-13T11:31:03.539Z,8.40
2022-09-13T11:33:46.315Z,8.13
2022-09-13T11:36:24.870Z,7.55
2022-09-13T11:39:08.578Z,8.02
2022-09-13T11:41:48.515Z,7.40
2022-09-13T11:44:40.762Z,7.57
2022-09-13T11:47:26.438Z,7.68
2022-09-13T11:50:04.433Z,7.70
2022-09-13T11:53:24.218Z,7.18
2022-09-13T11:56:02.145Z,7.70
2022-09-13T11:58:35.619Z,8.00
2022-09-13T12:01:05.436Z,8.23
2022-09-13T12:03:50.703Z,7.72
2022-09-13T12:06:34.317Z,8.05
2022-09-13T12:09:07.119Z,8.90
2022-09-13T12:11:35.833Z,7.95
2022-09-13T12:14:05.920Z,8.02
2022-09-13T12:16:36.027Z,8.68
2022-09-13T12:19:17.607Z,8.32
2022-09-13T12:21:45.022Z,8.38
2022-09-13T12:24:17.104Z,8.98
2022-09-13T12:27:23.946Z,8.15
2022-09-13T12:29:53.675Z,8.18
2022-09-13T12:32:21.167Z,8.18
2022-09-13T12:34:58.681Z,8.38
2022-09-13T12:37:31.701Z,8.25
2022-09-13T12:40:18.773Z,7.82
2022-09-13T12:42:56.685Z,8.35
2022-09-13T12:45:50.978Z,8.15
2022-09-13T12:48:43.784Z,8.23
2022-09-13T12:51:40.462Z,8.63
2022-09-13T12:54:07.657Z,8.60
2022-09-13T12:56:46.007Z,8.50
2022-09-13T12:59:24.868Z,8.45
2022-09-13T13:01:52.422Z,7.88
2022-09-13T13:04:21.761Z,8.88
2022-09-13T13:06:57.627Z,8.63
2022-09-13T13:09:31.468Z,8.25
2022-09-13T13:11:58.663Z,8.18
2022-09-13T13:14:40.760Z,8.82
2022-09-13T13:17:44.922Z,9.52
2022-09-13T13:20:49.262Z,9.57
2022-09-13T13:23:38.551Z,9.75
2022-09-13T13:26:12.256Z,9.75
2022-09-13T13:28:48.215Z,10.20
2022-09-13T13:31:24.104Z,9.70
2022-09-13T13:34:14.137Z,9.55
2022-09-13T13:36:41.138Z,9.55
2022-09-13T13:39:10.400Z,8.38
2022-09-13T13:41:40.521Z,8.93
2022-09-13T13:44:19.871Z,9.52
2022-09-13T13:46:51.340Z,9.27
2022-09-13T13:49:30.288Z,9.25
2022-09-13T13:52:09.344Z,8.23
2022-09-13T13:54:42.166Z,8.23
2022-09-13T13:57:21.131Z,8.52
2022-09-13T13:59:50.199Z,8.00
2022-09-13T14:02:19.277Z,8.38
2022-09-13T14:05:18.952Z,9.38
2022-09-13T14:08:19.807Z,9.55
2022-09-13T14:11:31.545Z,8.65
2022-09-13T14:14:23.655Z,9.45
2022-09-13T14:17:00.526Z,8.60
2022-09-13T14:19:28.783Z,9.20
2022-09-13T14:22:15.740Z,8.73
2022-09-13T14:24:48.888Z,10.32
2022-09-13T14:27:23.804Z,9.55
2022-09-13T14:29:55.898Z,9.43
2022-09-13T14:32:26.885Z,8.93
2022-09-13T14:35:01.351Z,8.95
2022-09-13T14:37:31.872Z,9.10
2022-09-13T14:40:01.721Z,23.20
2022-09-13T14:42:39.503Z,24.73
2022-09-13T14:45:06.555Z,24.85
2022-09-13T14:47:53.425Z,15.25
2022-09-13T14:50:27.560Z,10.35
2022-09-13T14:52:54.218Z,10.25
2022-09-13T14:55:43.462Z,9.18
2022-09-13T14:58:23.333Z,8.00
2022-09-13T15:00:53.453Z,8.27
2022-09-13T15:03:20.383Z,7.68
2022-09-13T15:05:59.902Z,7.38
2022-09-13T15:08:32.823Z,6.22
2022-09-13T15:11:06.933Z,6.15
2022-09-13T15:13:34.163Z,5.85
2022-09-13T15:16:00.955Z,5.55
2022-09-13T15:18:36.147Z,4.80
2022-09-13T15:21:07.553Z,5.50
2022-09-13T15:23:39.601Z,5.05
2022-09-13T15:26:13.160Z,4.97
2022-09-13T15:28:48.962Z,4.97
2022-09-13T15:31:23.400Z,4.75
2022-09-13T15:34:13.958Z,4.63
2022-09-13T15:36:40.673Z,4.53
2022-09-13T15:39:17.576Z,4.30
2022-09-13T15:41:59.189Z,4.40
2022-09-13T15:44:29.961Z,4.20
2022-09-13T15:47:05.083Z,4.18
2022-09-13T15:49:32.361Z,4.43
2022-09-13T15:52:03.312Z,3.80
2022-09-13T15:54:34.912Z,3.78
2022-09-13T15:57:01.822Z,4.15
2022-09-13T15:59:28.612Z,3.30
2022-09-13T16:01:56.046Z,3.78
2022-09-13T16:04:23.224Z,3.80
2022-09-13T16:06:49.988Z,4.40
2022-09-13T16:09:20.845Z,3.65
2022-09-13T16:11:48.838Z,3.63
2022-09-13T16:14:15.885Z,3.10
2022-09-13T16:16:43.017Z,3.60
2022-09-13T16:19:16.900Z,3.58
2022-09-13T16:21:43.628Z,3.03
2022-09-13T16:24:11.538Z,3.63
2022-09-13T16:26:38.788Z,3.28
2022-09-13T16:29:05.792Z,3.50
2022-09-13T16:31:32.652Z,3.05
2022-09-13T16:33:59.341Z,3.40
2022-09-13T16:36:28.914Z,3.15
2022-09-13T16:38:56.459Z,3.20
2022-09-13T16:41:23.415Z,3.65
2022-09-13T16:43:51.413Z,3.42
2022-09-13T16:46:18.307Z,3.60
2022-09-13T16:48:45.181Z,3.45
2022-09-13T16:51:12.935Z,3.40
2022-09-13T16:53:41.624Z,3.58
2022-09-13T16:56:16.538Z,3.50
2022-09-13T16:58:46.826Z,3.30
2022-09-13T17:01:15.730Z,3.72
2022-09-13T17:03:42.742Z,3.17
2022-09-13T17:06:11.828Z,3.20
2022-09-13T17:08:40.213Z,3.00
2022-09-13T17:11:12.676Z,2.95
2022-09-13T17:13:40.803Z,3.00
2022-09-13T17:16:20.731Z,3.20
2022-09-13T17:18:47.623Z,2.88
2022-09-13T17:21:14.321Z,3.40
2022-09-13T17:23:41.062Z,3.15
2022-09-13T17:26:07.787Z,2.83
2022-09-13T17:28:36.714Z,3.08
2022-09-13T17:31:03.520Z,3.10
2022-09-13T17:33:30.254Z,2.83
2022-09-13T17:36:05.977Z,2.97
2022-09-13T17:38:33.073Z,3.45
2022-09-13T17:41:05.746Z,2.25
2022-09-13T17:43:33.781Z,2.78
2022-09-13T17:46:05.695Z,2.75
2022-09-13T17:48:32.420Z,2.42
2022-09-13T17:51:07.976Z,2.70
2022-09-13T17:53:55.828Z,2.60
2022-09-13T17:56:31.437Z,2.25
2022-09-13T17:59:10.224Z,2.00
2022-09-13T18:01:39.429Z,2.40
2022-09-13T18:04:07.927Z,2.47
2022-09-13T18:06:36.530Z,1.98
2022-09-13T18:09:08.161Z,2.53
2022-09-13T18:11:35.470Z,2.00
2022-09-13T18:14:02.862Z,2.28
2022-09-13T18:16:30.200Z,2.10
2022-09-13T18:18:57.068Z,2.38
2022-09-13T18:21:25.424Z,2.05
2022-09-13T18:23:55.620Z,2.50
2022-09-13T18:26:23.531Z,2.58
2022-09-13T18:28:56.056Z,2.50
2022-09-13T18:31:23.846Z,2.30
2022-09-13T18:33:58.320Z,2.60
2022-09-13T18:36:26.234Z,2.60
2022-09-13T18:38:53.905Z,2.60
2022-09-13T18:41:23.533Z,2.58
2022-09-13T18:43:55.437Z,2.78
2022-09-13T18:46:25.227Z,2.78
2022-09-13T18:48:54.382Z,2.67
2022-09-13T18:51:35.532Z,2.78
2022-09-13T18:54:03.151Z,2.95
2022-09-13T18:56:29.937Z,3.13
2022-09-13T18:58:56.965Z,2.92
2022-09-13T19:01:26.989Z,3.30
2022-09-13T19:04:02.193Z,3.70
2022-09-13T19:06:40.706Z,3.05
2022-09-13T19:09:08.501Z,3.30
2022-09-13T19:11:47.211Z,2.92
2022-09-13T19:14:23.362Z,3.22
2022-09-13T19:16:51.280Z,3.20
2022-09-13T19:19:18.041Z,3.38
2022-09-13T19:21:45.022Z,3.25
2022-09-13T19:24:18.447Z,3.55
2022-09-13T19:26:47.484Z,3.40
2022-09-13T19:29:15.798Z,3.35
2022-09-13T19:31:47.688Z,3.53
2022-09-13T19:34:15.602Z,3.22
2022-09-13T19:36:44.318Z,3.42
2022-09-13T19:39:11.219Z,3.60
2022-09-13T19:41:38.844Z,3.53
2022-09-13T19:44:06.006Z,3.95
2022-09-13T19:46:35.618Z,3.25
2022-09-13T19:49:02.941Z,3.53
2022-09-13T19:51:35.798Z,4.10
2022-09-13T19:54:03.957Z,3.47
2022-09-13T19:56:34.409Z,3.90
2022-09-13T19:59:01.829Z,3.67
2022-09-13T20:01:31.822Z,3.42
2022-09-13T20:04:03.391Z,3.80
2022-09-13T20:06:44.749Z,3.28
2022-09-13T20:09:13.191Z,3.60
2022-09-13T20:11:42.550Z,3.30
2022-09-13T20:14:11.272Z,3.40
2022-09-13T20:16:39.614Z,3.45
2022-09-13T20:19:29.540Z,3.70
2022-09-13T20:21:55.698Z,3.88
2022-09-13T20:24:23.313Z,3.35
2022-09-13T20:26:52.305Z,3.60
2022-09-13T20:29:19.524Z,3.75
2022-09-13T20:31:47.274Z,3.53
2022-09-13T20:34:17.383Z,3.83
2022-09-13T20:36:45.673Z,3.63
2022-09-13T20:39:12.514Z,3.75
2022-09-13T20:41:39.253Z,3.88
2022-09-13T20:44:07.690Z,3.92
2022-09-13T20:46:34.435Z,4.40
2022-09-13T20:49:02.555Z,3.83
2022-09-13T20:51:33.942Z,3.47
2022-09-13T20:54:01.382Z,3.45
2022-09-13T20:56:29.046Z,3.85
2022-09-13T20:58:58.405Z,3.65
2022-09-13T21:01:26.672Z,3.30
2022-09-13T21:03:54.707Z,3.38
2022-09-13T21:06:27.329Z,3.33
2022-09-13T21:08:56.516Z,3.08
2022-09-13T21:11:34.042Z,2.95
2022-09-13T21:14:05.515Z,2.78
2022-09-13T21:16:34.433Z,3.05
2022-09-13T21:19:01.497Z,2.65
2022-09-13T21:21:30.661Z,2.80
2022-09-13T21:23:58.500Z,2.63
2022-09-13T21:26:27.046Z,2.85
2022-09-13T21:28:54.797Z,2.70
2022-09-13T21:31:25.206Z,3.42
2022-09-13T21:33:56.859Z,2.72
2022-09-13T21:36:24.225Z,2.95
2022-09-13T21:38:52.035Z,3.22
2022-09-13T21:41:18.899Z,3.00
2022-09-13T21:43:45.722Z,2.50
2022-09-13T21:46:16.820Z,2.38
2022-09-13T21:48:46.547Z,2.30
2022-09-13T21:51:18.357Z,2.50
2022-09-13T21:53:46.210Z,2.65
2022-09-13T21:56:15.408Z,2.58
2022-09-13T21:58:42.712Z,2.05
2022-09-13T22:01:14.354Z,2.30
2022-09-13T22:03:43.270Z,2.08
2022-09-13T22:06:19.639Z,2.15
2022-09-13T22:08:49.333Z,2.03
2022-09-13T22:11:19.908Z,2.03
2022-09-13T22:13:47.732Z,2.30
2022-09-13T22:16:21.300Z,1.38
2022-09-13T22:18:57.730Z,1.60
2022-09-13T22:21:27.409Z,2.10
2022-09-13T22:23:54.566Z,1.90
2022-09-13T22:26:23.935Z,1.73
2022-09-13T22:28:51.296Z,1.60
2022-09-13T22:31:20.749Z,1.90
2022-09-13T22:33:47.530Z,1.50
2022-09-13T22:36:15.834Z,1.77
2022-09-13T22:38:43.691Z,1.48
2022-09-13T22:41:14.166Z,1.45
2022-09-13T22:43:41.754Z,1.52
2022-09-13T22:46:09.841Z,1.50
2022-09-13T22:48:36.707Z,1.80
2022-09-13T22:51:06.173Z,1.50
2022-09-13T22:53:35.170Z,1.30
2022-09-13T22:56:05.989Z,1.23
2022-09-13T22:58:32.716Z,1.75
2022-09-13T23:01:04.750Z,2.00
2022-09-13T23:03:31.938Z,1.40
2022-09-13T23:05:58.619Z,1.23
2022-09-13T23:08:28.389Z,1.30
2022-09-13T23:10:56.159Z,1.42
2022-09-13T23:13:22.939Z,1.77
2022-09-13T23:15:50.085Z,1.50
2022-09-13T23:18:16.781Z,1.35
2022-09-13T23:20:43.505Z,1.90
2022-09-13T23:23:11.254Z,1.42
2022-09-13T23:25:37.980Z,1.85
2022-09-13T23:28:04.699Z,1.30
2022-09-13T23:30:31.354Z,1.65
2022-09-13T23:32:58.105Z,1.50
2022-09-13T23:35:24.866Z,1.38
2022-09-13T23:37:51.550Z,1.52
2022-09-13T23:40:18.299Z,1.42
2022-09-13T23:42:44.997Z,1.40
2022-09-13T23:45:12.272Z,1.42
2022-09-13T23:47:39.085Z,1.50
2022-09-13T23:50:06.163Z,1.42
2022-09-13T23:52:33.051Z,1.35
2022-09-13T23:55:00.619Z,1.80
2022-09-13T23:57:27.321Z,1.52
2022-09-13T23:59:53.970Z,1.20
